createdAt,value
2019-06-10T09:48:41.244Z,30.40
2019-06-10T09:49:10.047Z,30.31
2019-06-10T09:50:17.290Z,30.25
2019-06-10T09:50:51.286Z,30.25
2019-06-10T09:51:57.154Z,30.27
2019-06-10T09:52:24.530Z,30.13
2019-06-10T09:53:41.203Z,30.13
2019-06-10T09:54:06.384Z,30.09
2019-06-10T09:55:32.929Z,30.12
2019-06-10T09:56:04.155Z,29.97
2019-06-10T09:57:09.778Z,29.98
2019-06-10T09:58:49.034Z,30.00
2019-06-10T09:59:17.491Z,30.00
2019-06-10T10:00:24.689Z,29.93
2019-06-10T10:00:57.791Z,29.90
2019-06-10T10:02:05.960Z,29.86
2019-06-10T10:02:33.227Z,29.88
2019-06-10T10:03:39.171Z,29.84
2019-06-10T10:04:09.169Z,29.87
2019-06-10T10:05:16.418Z,29.90
2019-06-10T10:06:01.640Z,29.87
2019-06-10T10:06:57.111Z,29.87
2019-06-10T10:07:23.658Z,29.86
2019-06-10T10:08:32.767Z,29.87
2019-06-10T10:09:03.238Z,29.86
2019-06-10T10:10:32.722Z,29.94
2019-06-10T10:11:01.097Z,29.93
2019-06-10T10:12:08.372Z,29.87
2019-06-10T10:12:38.341Z,29.97
2019-06-10T10:21:47.772Z,29.72
2019-06-10T10:23:53.962Z,29.81
2019-06-10T10:32:47.634Z,30.08
2019-06-10T10:34:46.995Z,30.37
2019-06-10T10:37:22.924Z,30.51
2019-06-10T10:39:24.514Z,30.81
2019-06-10T10:41:58.869Z,31.49
2019-06-10T10:43:58.856Z,31.56
2019-06-10T10:46:36.129Z,32.12
2019-06-10T10:48:36.125Z,32.48
2019-06-10T10:51:13.506Z,32.70
2019-06-10T10:53:13.484Z,32.52
2019-06-10T10:55:51.877Z,32.60
2019-06-10T10:57:54.336Z,32.77
2019-06-10T11:00:28.075Z,33.20
2019-06-10T11:02:28.054Z,33.15
2019-06-10T11:05:05.318Z,33.32
2019-06-10T11:07:05.322Z,33.22
2019-06-10T11:09:44.218Z,33.34
2019-06-10T11:11:43.994Z,33.62
2019-06-10T11:14:19.896Z,33.90
2019-06-10T11:16:22.361Z,33.94
2019-06-10T11:18:58.114Z,34.14
2019-06-10T11:21:01.265Z,34.18
2019-06-10T11:23:34.780Z,34.30
2019-06-10T11:25:34.459Z,34.03
2019-06-10T11:28:11.738Z,33.71
2019-06-10T11:30:12.394Z,33.49
2019-06-10T11:32:50.692Z,33.50
2019-06-10T11:34:49.831Z,33.61
2019-06-10T11:37:26.307Z,33.34
2019-06-10T11:39:26.315Z,33.24
2019-06-10T11:42:04.007Z,33.22
2019-06-10T11:44:03.592Z,33.15
2019-06-10T11:46:43.080Z,33.42
2019-06-10T11:48:43.548Z,33.58
2019-06-10T11:51:18.959Z,33.30
2019-06-10T11:53:18.612Z,32.93
2019-06-10T11:55:56.852Z,32.58
2019-06-10T11:57:57.608Z,32.49
2019-06-10T12:00:33.329Z,32.19
2019-06-10T12:02:33.138Z,31.96
2019-06-10T12:05:12.820Z,31.87
2019-06-10T12:08:07.643Z,31.78
2019-06-10T12:10:07.674Z,31.96
2019-06-10T12:12:44.978Z,32.12
2019-06-10T12:14:44.934Z,32.01
2019-06-10T12:17:41.048Z,31.85
2019-06-10T12:19:23.549Z,32.01
2019-06-10T12:22:03.635Z,32.23
2019-06-10T12:24:02.427Z,32.04
2019-06-10T12:26:37.252Z,32.51
2019-06-10T12:28:37.228Z,32.51
2019-06-10T12:31:15.136Z,32.40
2019-06-10T12:33:21.251Z,32.00
2019-06-10T12:35:57.711Z,32.12
2019-06-10T12:37:55.931Z,32.34
2019-06-10T12:40:29.083Z,32.38
2019-06-10T12:42:29.072Z,31.94
2019-06-10T12:45:08.526Z,31.85
2019-06-10T12:47:08.322Z,31.59
2019-06-10T12:49:44.538Z,31.43
2019-06-10T12:51:44.536Z,31.42
2019-06-10T12:54:22.631Z,31.49
2019-06-10T12:56:22.875Z,31.47
2019-06-10T12:59:01.028Z,31.46
2019-06-10T13:00:59.525Z,31.09
2019-06-10T13:03:36.812Z,31.29
2019-06-10T13:05:36.812Z,31.21
2019-06-10T13:08:14.531Z,31.44
2019-06-10T13:10:14.543Z,31.25
2019-06-10T13:12:53.093Z,31.42
2019-06-10T13:14:52.151Z,31.22
2019-06-10T13:17:29.138Z,31.66
2019-06-10T13:19:29.110Z,31.61
2019-06-10T13:22:07.593Z,31.64
2019-06-10T13:24:07.807Z,30.99
2019-06-10T13:26:43.687Z,31.27
2019-06-10T18:24:25.536Z,17.80
2019-06-10T18:26:24.774Z,17.80
2019-06-10T18:29:08.576Z,17.72
2019-06-10T18:31:03.705Z,17.79
2019-06-10T18:33:43.944Z,17.64
2019-06-10T18:35:43.906Z,17.49
2019-06-10T18:38:24.284Z,17.44
2019-06-10T18:42:24.115Z,17.39
2019-06-10T18:45:04.389Z,17.34
2019-06-10T18:47:04.364Z,17.29
2019-06-10T18:49:44.600Z,17.19
2019-06-10T18:51:44.541Z,17.16
2019-06-10T18:54:24.749Z,17.06
2019-06-10T18:56:24.729Z,16.99
2019-06-10T18:59:16.804Z,16.94
2019-06-10T19:01:07.764Z,16.97
2019-06-10T19:03:45.169Z,16.93
2019-06-10T19:05:45.138Z,16.81
2019-06-10T19:08:25.325Z,16.90
2019-06-10T19:10:25.287Z,16.78
2019-06-10T19:13:05.535Z,16.83
2019-06-10T19:15:05.482Z,16.74
2019-06-10T19:17:45.705Z,16.64
2019-06-10T19:19:45.681Z,16.68
2019-06-10T19:22:25.924Z,16.71
2019-06-10T19:24:25.881Z,16.65
2019-06-10T19:27:06.124Z,16.58
2019-06-10T19:35:07.031Z,16.60
2019-06-10T19:43:45.579Z,16.50
2019-06-10T19:51:46.864Z,16.38
2019-06-10T20:00:24.337Z,16.29
2019-06-10T20:08:24.301Z,16.29
2019-06-10T20:17:03.450Z,16.29
2019-06-10T20:25:03.798Z,16.23
2019-06-10T20:33:43.240Z,16.16
2019-06-10T20:41:47.257Z,16.12
2019-06-10T20:50:21.705Z,15.98
2019-06-10T20:58:22.467Z,15.82
2019-06-10T21:07:02.504Z,15.83
2019-06-10T21:15:02.343Z,15.77
2019-06-10T21:23:41.183Z,15.76
2019-06-10T21:31:41.065Z,15.59
2019-06-10T21:40:18.967Z,15.54
2019-06-10T21:48:18.859Z,15.43
2019-06-10T21:56:58.335Z,15.39
2019-06-10T22:04:58.019Z,15.37
2019-06-10T22:13:37.104Z,15.28
2019-06-10T22:21:37.048Z,15.22
2019-06-10T22:30:16.178Z,15.19
